createdAt,value
2018-12-22T00:01:32.585Z,2.00
2018-12-22T00:04:01.817Z,2.00
2018-12-22T00:06:31.000Z,1.60
2018-12-22T00:09:00.212Z,2.37
2018-12-22T00:11:30.490Z,1.40
2018-12-22T00:13:59.717Z,1.43
2018-12-22T00:16:28.895Z,1.20
2018-12-22T00:18:58.049Z,1.30
2018-12-22T00:21:27.335Z,1.40
2018-12-22T00:23:56.547Z,1.50
2018-12-22T00:26:25.711Z,1.40
2018-12-22T00:28:54.899Z,1.60
2018-12-22T00:31:24.090Z,1.33
2018-12-22T00:33:53.259Z,1.00
2018-12-22T00:36:22.456Z,1.53
2018-12-22T00:38:51.668Z,1.03
2018-12-22T00:41:20.816Z,1.10
2018-12-22T00:43:49.970Z,1.50
2018-12-22T00:46:19.157Z,1.20
2018-12-22T00:48:48.342Z,1.30
2018-12-22T00:51:17.561Z,0.93
2018-12-22T00:53:46.725Z,1.10
2018-12-22T00:56:15.930Z,1.10
2018-12-22T00:58:45.126Z,0.90
2018-12-22T01:01:14.438Z,1.30
2018-12-22T01:03:43.630Z,1.10
2018-12-22T01:06:12.823Z,1.17
2018-12-22T01:08:42.050Z,1.10
2018-12-22T01:11:11.231Z,1.10
2018-12-22T01:13:40.407Z,1.03
2018-12-22T01:16:10.523Z,1.00
2018-12-22T01:18:40.164Z,0.93
2018-12-22T01:21:09.429Z,1.20
2018-12-22T01:23:38.601Z,1.00
2018-12-22T01:26:07.768Z,1.10
2018-12-22T01:28:39.474Z,1.10
2018-12-22T01:31:08.146Z,1.10
2018-12-22T01:33:37.435Z,1.20
2018-12-22T01:36:06.591Z,1.20
2018-12-22T01:38:35.774Z,1.13
2018-12-22T01:41:04.989Z,0.80
2018-12-22T01:43:34.184Z,0.93
2018-12-22T01:46:03.357Z,1.27
2018-12-22T01:48:32.594Z,1.23
2018-12-22T01:51:01.790Z,1.50
2018-12-22T01:53:30.952Z,1.50
2018-12-22T01:56:00.130Z,1.57
2018-12-22T01:58:29.280Z,2.07
2018-12-22T02:00:58.444Z,1.40
2018-12-22T02:03:27.733Z,1.80
2018-12-22T02:05:57.004Z,1.40
2018-12-22T02:08:26.168Z,1.23
2018-12-22T02:10:55.354Z,1.30
2018-12-22T02:13:24.567Z,1.23
2018-12-22T02:15:53.743Z,1.10
2018-12-22T02:18:23.026Z,0.80
2018-12-22T02:20:52.194Z,1.13
2018-12-22T02:23:21.372Z,0.90
2018-12-22T02:25:50.569Z,0.97
2018-12-22T02:28:19.745Z,0.90
2018-12-22T02:30:48.921Z,0.90
2018-12-22T02:33:18.136Z,0.90
2018-12-22T02:35:47.315Z,0.70
2018-12-22T02:38:16.514Z,1.10
2018-12-22T02:40:45.766Z,0.80
2018-12-22T02:43:14.944Z,0.80
2018-12-22T02:45:45.187Z,1.20
2018-12-22T02:48:14.436Z,0.70
2018-12-22T02:50:43.696Z,0.40
2018-12-22T02:53:12.885Z,0.70
2018-12-22T02:55:42.199Z,0.57
2018-12-22T02:58:11.388Z,0.50
2018-12-22T03:00:40.602Z,0.50
2018-12-22T03:03:09.826Z,0.77
2018-12-22T03:05:39.234Z,0.70
2018-12-22T03:08:08.605Z,0.50
2018-12-22T03:10:37.820Z,0.60
2018-12-22T03:13:07.080Z,0.70
2018-12-22T03:15:36.385Z,0.63
2018-12-22T03:18:09.056Z,0.50
2018-12-22T03:20:38.263Z,0.90
2018-12-22T03:23:07.546Z,0.70
2018-12-22T03:25:39.441Z,0.70
2018-12-22T03:28:10.727Z,0.80
2018-12-22T03:30:41.984Z,0.80
2018-12-22T03:33:13.445Z,0.60
2018-12-22T03:35:45.129Z,0.57
2018-12-22T03:38:16.083Z,0.63
2018-12-22T03:40:47.687Z,0.50
2018-12-22T03:43:18.568Z,0.50
2018-12-22T03:45:50.668Z,0.40
2018-12-22T03:48:22.585Z,0.50
2018-12-22T03:50:53.043Z,0.30
2018-12-22T03:53:22.237Z,0.50
2018-12-22T03:55:51.448Z,0.60
2018-12-22T03:58:20.658Z,0.70
2018-12-22T04:00:50.974Z,0.60
2018-12-22T04:03:20.173Z,0.50
2018-12-22T04:05:49.374Z,0.57
2018-12-22T04:08:18.575Z,0.70
2018-12-22T04:10:47.906Z,0.60
2018-12-22T04:13:17.123Z,0.60
2018-12-22T04:15:47.514Z,0.50
2018-12-22T04:18:16.722Z,0.63
2018-12-22T04:20:45.908Z,0.67
2018-12-22T04:23:15.105Z,0.90
2018-12-22T04:25:44.264Z,0.70
2018-12-22T04:28:13.455Z,0.77
2018-12-22T04:30:42.651Z,0.80
2018-12-22T04:33:11.982Z,0.80
2018-12-22T04:35:41.186Z,0.80
2018-12-22T04:38:10.367Z,0.80
2018-12-22T04:40:39.611Z,0.70
2018-12-22T04:43:08.805Z,0.70
2018-12-22T04:45:37.989Z,0.90
2018-12-22T04:48:07.197Z,0.90
2018-12-22T04:50:36.369Z,0.60
2018-12-22T04:53:05.575Z,0.60
2018-12-22T04:55:34.773Z,0.90
2018-12-22T04:58:03.991Z,0.90
2018-12-22T05:00:33.194Z,0.87
2018-12-22T05:03:02.418Z,1.00
2018-12-22T05:05:31.612Z,1.03
2018-12-22T05:08:00.844Z,0.60
2018-12-22T05:10:30.034Z,0.80
2018-12-22T05:12:59.233Z,0.90
2018-12-22T05:15:28.431Z,1.00
2018-12-22T05:17:58.695Z,0.70
2018-12-22T05:20:27.896Z,1.00
2018-12-22T05:22:57.072Z,0.80
2018-12-22T05:25:26.269Z,1.00
2018-12-22T05:27:55.445Z,0.70
2018-12-22T05:30:24.618Z,1.23
2018-12-22T05:32:53.796Z,1.10
2018-12-22T05:35:25.938Z,0.90
2018-12-22T05:37:55.108Z,0.97
2018-12-22T05:40:24.302Z,1.27
2018-12-22T05:42:53.467Z,1.10
2018-12-22T05:45:22.685Z,1.93
2018-12-22T05:47:51.873Z,1.00
2018-12-22T05:50:21.065Z,0.97
2018-12-22T05:52:50.234Z,0.80
2018-12-22T05:55:19.536Z,1.10
2018-12-22T05:57:48.715Z,1.07
2018-12-22T06:00:17.901Z,0.77
2018-12-22T06:02:47.105Z,1.00
2018-12-22T06:05:16.826Z,0.97
2018-12-22T06:07:46.169Z,1.23
2018-12-22T06:10:15.344Z,1.13
2018-12-22T06:12:44.572Z,1.17
2018-12-22T06:15:13.774Z,1.40
2018-12-22T06:17:45.763Z,1.07
2018-12-22T06:20:15.314Z,1.20
2018-12-22T06:22:46.293Z,0.80
2018-12-22T06:25:16.216Z,1.20
2018-12-22T06:27:45.519Z,1.20
2018-12-22T06:30:17.038Z,1.40
2018-12-22T06:32:46.681Z,1.50
2018-12-22T06:35:15.893Z,1.10
2018-12-22T06:37:45.121Z,1.03
2018-12-22T06:40:14.389Z,1.20
2018-12-22T06:42:43.582Z,1.37
2018-12-22T06:45:12.922Z,1.20
2018-12-22T06:47:42.134Z,1.50
2018-12-22T06:50:11.332Z,1.40
2018-12-22T06:52:40.521Z,1.17
2018-12-22T06:55:09.758Z,1.20
2018-12-22T06:57:38.956Z,1.10
2018-12-22T07:00:17.415Z,1.00
2018-12-22T07:02:40.771Z,1.30
2018-12-22T07:05:09.993Z,1.20
2018-12-22T07:07:39.224Z,1.10
2018-12-22T07:10:09.234Z,1.30
2018-12-22T07:12:39.536Z,1.10
2018-12-22T07:15:08.789Z,1.27
2018-12-22T07:17:38.039Z,1.40
2018-12-22T07:20:07.390Z,1.27
2018-12-22T07:22:36.626Z,1.20
2018-12-22T07:25:05.928Z,1.00
2018-12-22T07:27:35.120Z,2.40
2018-12-22T07:30:04.731Z,1.27
2018-12-22T07:32:33.893Z,1.40
2018-12-22T07:35:03.183Z,1.60
2018-12-22T07:37:32.375Z,2.10
2018-12-22T07:40:01.569Z,1.40
2018-12-22T07:42:30.847Z,1.93
2018-12-22T07:45:00.046Z,2.83
2018-12-22T07:47:29.227Z,2.53
2018-12-22T07:49:58.400Z,3.03
2018-12-22T07:52:27.589Z,2.20
2018-12-22T07:54:56.769Z,2.67
2018-12-22T07:57:25.969Z,2.00
2018-12-22T07:59:55.219Z,1.97
2018-12-22T08:02:24.430Z,1.77
2018-12-22T08:04:53.595Z,1.37
2018-12-22T08:07:22.788Z,1.70
2018-12-22T08:09:51.984Z,1.80
2018-12-22T08:12:21.197Z,1.63
2018-12-22T08:14:51.458Z,1.30
2018-12-22T08:17:20.711Z,1.40
2018-12-22T08:19:49.907Z,1.70
2018-12-22T08:22:19.082Z,1.40
2018-12-22T08:24:48.315Z,1.80
2018-12-22T08:27:17.570Z,1.60
2018-12-22T08:29:46.842Z,1.60
2018-12-22T08:32:16.101Z,1.70
2018-12-22T08:34:45.309Z,1.87
2018-12-22T08:37:14.525Z,1.70
2018-12-22T08:39:43.706Z,2.00
2018-12-22T08:42:12.943Z,6.30
2018-12-22T08:44:42.888Z,2.57
2018-12-22T08:47:12.333Z,2.30
2018-12-22T08:49:41.556Z,2.90
2018-12-22T08:52:10.805Z,2.00
2018-12-22T08:54:40.015Z,2.03
2018-12-22T08:57:09.257Z,2.50
2018-12-22T08:59:38.544Z,1.80
2018-12-22T09:02:07.826Z,2.00
2018-12-22T09:04:37.129Z,2.30
2018-12-22T09:07:06.340Z,1.73
2018-12-22T09:09:35.561Z,1.80
2018-12-22T09:12:04.812Z,1.80
2018-12-22T09:14:33.993Z,1.50
2018-12-22T09:17:03.258Z,1.87
2018-12-22T09:19:32.448Z,1.90
2018-12-22T09:22:01.619Z,2.00
2018-12-22T09:24:30.845Z,1.80
2018-12-22T09:27:00.078Z,1.80
2018-12-22T09:29:29.258Z,1.77
2018-12-22T09:31:58.535Z,2.13
2018-12-22T09:34:27.816Z,2.70
2018-12-22T09:36:57.009Z,1.87
2018-12-22T09:39:26.219Z,1.63
2018-12-22T09:41:55.384Z,2.23
2018-12-22T09:44:24.546Z,1.80
2018-12-22T09:46:53.796Z,2.00
2018-12-22T09:49:23.008Z,1.60
2018-12-22T09:51:52.275Z,2.00
2018-12-22T09:54:21.464Z,1.90
2018-12-22T09:56:50.828Z,1.53
2018-12-22T09:59:20.065Z,1.90
2018-12-22T10:01:49.372Z,2.10
2018-12-22T10:04:18.550Z,2.20
2018-12-22T10:06:47.750Z,2.00
2018-12-22T10:09:17.334Z,1.40
2018-12-22T10:11:46.553Z,2.23
2018-12-22T10:14:15.893Z,2.00
2018-12-22T10:16:45.178Z,1.90
2018-12-22T10:19:14.360Z,2.60
2018-12-22T10:21:43.838Z,2.70
2018-12-22T10:24:13.033Z,2.50
2018-12-22T10:26:42.255Z,2.43
2018-12-22T10:29:11.697Z,2.23
2018-12-22T10:31:40.976Z,2.20
2018-12-22T10:34:10.266Z,2.10
2018-12-22T10:36:39.791Z,2.57
2018-12-22T10:39:09.072Z,2.57
2018-12-22T10:41:38.299Z,1.90
2018-12-22T10:44:07.647Z,1.73
2018-12-22T10:46:36.933Z,2.40
2018-12-22T10:49:06.132Z,2.20
2018-12-22T10:51:35.398Z,2.23
2018-12-22T10:54:04.785Z,2.20
2018-12-22T10:56:33.953Z,2.33
2018-12-22T10:59:03.260Z,2.10
2018-12-22T11:01:32.579Z,2.17
2018-12-22T11:04:01.784Z,2.50
2018-12-22T11:06:31.113Z,1.77
2018-12-22T11:09:00.387Z,2.10
2018-12-22T11:11:29.714Z,2.30
2018-12-22T11:13:58.949Z,2.00
2018-12-22T11:16:28.253Z,1.97
2018-12-22T11:18:57.520Z,1.80
2018-12-22T11:21:26.919Z,1.60
2018-12-22T11:23:56.223Z,1.73
2018-12-22T11:26:26.294Z,1.12
2018-12-22T11:28:55.592Z,1.70
2018-12-22T11:31:24.833Z,1.50
2018-12-22T11:33:54.051Z,1.67
2018-12-22T11:36:23.303Z,1.70
2018-12-22T11:38:52.604Z,2.20
2018-12-22T11:41:23.122Z,1.53
2018-12-22T11:43:52.330Z,1.70
2018-12-22T11:46:21.574Z,2.00
2018-12-22T11:49:17.470Z,1.77
2018-12-22T11:51:46.708Z,1.73
2018-12-22T11:54:16.067Z,1.77
2018-12-22T11:56:45.890Z,1.77
2018-12-22T11:59:15.245Z,2.00
2018-12-22T12:01:44.890Z,1.97
2018-12-22T12:04:14.341Z,1.97
2018-12-22T12:06:43.667Z,2.40
2018-12-22T12:09:13.004Z,1.93
2018-12-22T12:11:42.419Z,2.10
2018-12-22T12:14:11.678Z,2.13
2018-12-22T12:17:05.287Z,2.07
2018-12-22T12:19:36.774Z,2.40
2018-12-22T12:22:06.427Z,3.03
2018-12-22T12:24:35.715Z,2.40
2018-12-22T12:27:05.354Z,1.83
2018-12-22T12:29:34.909Z,2.63
2018-12-22T12:32:04.260Z,7.50
2018-12-22T12:34:33.525Z,2.30
2018-12-22T12:37:02.969Z,2.60
2018-12-22T12:39:32.983Z,6.00
2018-12-22T12:42:03.889Z,2.97
2018-12-22T12:44:33.155Z,3.80
2018-12-22T12:47:02.715Z,3.20
2018-12-22T12:49:32.074Z,3.10
2018-12-22T12:52:01.523Z,2.37
2018-12-22T12:54:31.041Z,2.83
2018-12-22T12:57:00.932Z,4.63
2018-12-22T12:59:32.511Z,2.30
2018-12-22T13:02:03.519Z,2.50
2018-12-22T13:04:32.978Z,2.50
2018-12-22T13:07:02.319Z,1.80
2018-12-22T13:09:31.855Z,2.40
2018-12-22T13:12:10.181Z,2.20
2018-12-22T13:14:39.972Z,2.10
2018-12-22T13:17:09.290Z,2.40
2018-12-22T13:19:38.523Z,3.73
2018-12-22T13:22:07.841Z,3.27
2018-12-22T13:24:37.246Z,2.37
2018-12-22T13:27:06.648Z,3.13
2018-12-22T13:29:35.996Z,2.57
2018-12-22T13:32:09.574Z,3.30
2018-12-22T13:34:36.837Z,2.50
2018-12-22T13:37:06.214Z,2.67
2018-12-22T13:39:35.567Z,2.70
2018-12-22T13:42:05.154Z,2.37
2018-12-22T13:44:34.589Z,2.70
2018-12-22T13:47:03.999Z,2.80
2018-12-22T13:49:33.456Z,5.10
2018-12-22T13:52:02.924Z,1.60
2018-12-22T13:54:32.316Z,3.20
2018-12-22T13:57:01.560Z,2.47
2018-12-22T13:59:30.874Z,1.87
2018-12-22T14:02:03.427Z,1.97
2018-12-22T14:04:34.394Z,2.40
2018-12-22T14:07:05.317Z,2.90
2018-12-22T14:09:34.575Z,2.40
2018-12-22T14:12:03.950Z,2.70
2018-12-22T14:14:35.919Z,2.10
2018-12-22T14:17:21.666Z,2.20
2018-12-22T14:20:03.093Z,2.00
2018-12-22T14:22:34.085Z,3.27
2018-12-22T14:25:11.362Z,2.33
2018-12-22T14:27:40.662Z,2.60
2018-12-22T14:30:11.538Z,2.67
2018-12-22T14:32:40.796Z,2.63
2018-12-22T14:35:41.251Z,3.17
2018-12-22T14:38:10.566Z,3.00
2018-12-22T14:40:39.856Z,2.80
2018-12-22T14:43:09.174Z,2.53
2018-12-22T14:45:38.428Z,2.40
2018-12-22T14:48:07.726Z,2.67
2018-12-22T14:50:37.014Z,2.37
2018-12-22T14:53:06.284Z,2.00
2018-12-22T14:55:35.569Z,2.30
2018-12-22T14:58:14.294Z,2.03
2018-12-22T15:00:43.586Z,2.37
2018-12-22T15:03:12.914Z,2.63
2018-12-22T15:05:42.188Z,2.23
2018-12-22T15:08:11.448Z,2.10
2018-12-22T15:10:41.228Z,2.20
2018-12-22T15:13:10.497Z,2.90
2018-12-22T15:15:39.761Z,3.57
2018-12-22T15:18:09.048Z,3.27
2018-12-22T15:20:38.318Z,2.23
2018-12-22T15:23:10.749Z,2.37
2018-12-22T15:25:40.212Z,2.10
2018-12-22T15:28:09.486Z,2.40
2018-12-22T15:30:38.856Z,2.47
2018-12-22T15:33:08.174Z,1.97
2018-12-22T15:35:37.452Z,2.23
2018-12-22T15:38:06.700Z,2.30
2018-12-22T15:40:36.026Z,2.40
2018-12-22T15:43:16.134Z,2.60
2018-12-22T15:45:47.450Z,2.50
2018-12-22T15:48:17.387Z,2.40
2018-12-22T15:50:48.313Z,2.80
2018-12-22T15:53:17.596Z,3.40
2018-12-22T15:55:46.874Z,2.97
2018-12-22T15:58:16.154Z,3.00
2018-12-22T16:00:45.482Z,2.90
2018-12-22T16:03:14.764Z,3.10
2018-12-22T16:05:44.044Z,3.63
2018-12-22T16:08:13.380Z,3.30
2018-12-22T16:10:42.661Z,2.80
2018-12-22T16:13:11.928Z,2.73
2018-12-22T16:15:41.229Z,2.13
2018-12-22T16:18:10.505Z,2.47
2018-12-22T16:20:39.775Z,2.40
2018-12-22T16:23:09.036Z,2.17
2018-12-22T16:25:38.314Z,2.60
2018-12-22T16:28:12.627Z,2.60
2018-12-22T16:30:45.361Z,2.30
2018-12-22T16:33:14.683Z,2.60
2018-12-22T16:35:45.880Z,2.97
2018-12-22T16:38:22.766Z,2.60
2018-12-22T16:43:49.759Z,3.20
2018-12-22T16:46:18.974Z,3.70
2018-12-22T16:48:48.249Z,2.50
2018-12-22T16:51:17.548Z,3.07
2018-12-22T16:53:46.841Z,3.60
2018-12-22T16:56:16.107Z,3.27
2018-12-22T16:58:47.370Z,3.23
2018-12-22T17:01:23.268Z,4.30
2018-12-22T17:03:52.565Z,3.70
2018-12-22T17:06:21.899Z,3.20
2018-12-22T17:08:51.252Z,3.90
2018-12-22T17:11:20.580Z,4.27
2018-12-22T17:13:49.884Z,3.13
2018-12-22T17:16:20.232Z,2.90
2018-12-22T17:18:49.518Z,3.80
2018-12-22T17:21:23.394Z,3.63
2018-12-22T17:23:57.974Z,3.90
2018-12-22T17:26:29.694Z,5.43
2018-12-22T17:28:58.985Z,4.27
2018-12-22T17:31:28.299Z,5.30
2018-12-22T17:33:57.601Z,5.00
2018-12-22T17:36:26.904Z,6.03
2018-12-22T17:38:56.212Z,5.73
2018-12-22T17:41:26.465Z,4.10
2018-12-22T17:43:55.791Z,4.57
2018-12-22T17:46:25.097Z,4.60
2018-12-22T17:48:54.438Z,4.17
2018-12-22T17:51:23.760Z,4.70
2018-12-22T17:53:53.070Z,4.30
2018-12-22T17:56:22.392Z,4.30
2018-12-22T17:58:51.715Z,4.10
2018-12-22T18:01:21.075Z,9.13
2018-12-22T18:03:50.381Z,2.97
2018-12-22T18:06:19.692Z,3.23
2018-12-22T18:08:49.030Z,3.60
2018-12-22T18:11:18.318Z,4.20
2018-12-22T18:13:47.682Z,3.13
2018-12-22T18:16:16.961Z,3.93
2018-12-22T18:18:46.267Z,4.20
2018-12-22T18:21:15.567Z,4.27
2018-12-22T18:23:44.856Z,3.03
2018-12-22T18:26:14.173Z,3.90
2018-12-22T18:28:43.459Z,3.63
2018-12-22T18:31:12.736Z,4.40
2018-12-22T18:33:42.042Z,4.53
2018-12-22T18:36:11.338Z,4.30
2018-12-22T18:38:40.648Z,4.17
2018-12-22T18:41:10.453Z,4.67
2018-12-22T18:43:39.773Z,3.97
2018-12-22T18:46:09.069Z,4.07
2018-12-22T18:48:38.454Z,4.40
2018-12-22T18:51:07.769Z,5.80
2018-12-22T18:53:37.085Z,4.90
2018-12-22T18:56:06.734Z,4.40
2018-12-22T18:58:36.039Z,5.67
2018-12-22T19:01:06.370Z,3.80
2018-12-22T19:04:05.370Z,3.50
2018-12-22T19:06:41.924Z,3.00
2018-12-22T19:09:16.292Z,2.90
2018-12-22T19:11:45.766Z,3.10
2018-12-22T19:14:15.446Z,3.80
2018-12-22T19:16:45.297Z,3.33
2018-12-22T19:19:14.588Z,3.80
2018-12-22T19:21:44.183Z,3.60
2018-12-22T19:24:13.490Z,6.20
2018-12-22T19:26:42.839Z,6.03
2018-12-22T19:29:12.179Z,3.97
2018-12-22T19:31:41.948Z,5.73
2018-12-22T19:34:11.639Z,5.40
2018-12-22T19:36:40.975Z,4.60
2018-12-22T19:39:10.446Z,4.10
2018-12-22T19:41:39.748Z,4.10
2018-12-22T19:44:09.085Z,4.70
2018-12-22T19:46:38.448Z,4.60
2018-12-22T19:49:07.877Z,3.97
2018-12-22T19:51:37.330Z,5.10
2018-12-22T19:54:06.675Z,4.73
2018-12-22T19:56:36.033Z,5.80
2018-12-22T19:59:05.327Z,3.80
2018-12-22T20:01:34.679Z,3.80
2018-12-22T20:04:04.103Z,3.90
2018-12-22T20:06:33.514Z,3.90
2018-12-22T20:09:04.198Z,3.70
2018-12-22T20:11:33.651Z,4.30
2018-12-22T20:14:03.045Z,4.77
2018-12-22T20:16:32.370Z,4.67
2018-12-22T20:19:02.718Z,4.50
2018-12-22T20:21:32.104Z,5.00
2018-12-22T20:24:01.454Z,3.90
2018-12-22T20:26:30.793Z,4.30
2018-12-22T20:29:00.086Z,4.20
2018-12-22T20:31:29.439Z,4.20
2018-12-22T20:33:58.886Z,4.40
2018-12-22T20:36:28.208Z,4.57
2018-12-22T20:38:57.494Z,4.57
2018-12-22T20:41:26.886Z,4.40
2018-12-22T20:43:56.207Z,4.23
2018-12-22T20:46:25.530Z,4.30
2018-12-22T20:48:54.877Z,5.23
2018-12-22T20:51:24.232Z,4.90
2018-12-22T20:53:53.586Z,4.43
2018-12-22T20:56:23.085Z,4.20
2018-12-22T20:58:52.407Z,5.67
2018-12-22T21:01:21.731Z,5.30
2018-12-22T21:03:51.517Z,4.43
2018-12-22T21:06:26.616Z,4.00
2018-12-22T21:08:55.925Z,3.90
2018-12-22T21:11:25.289Z,3.13
2018-12-22T21:13:54.781Z,3.07
2018-12-22T21:16:24.129Z,2.93
2018-12-22T21:18:53.627Z,3.30
2018-12-22T21:21:23.001Z,2.93
2018-12-22T21:23:52.416Z,3.27
2018-12-22T21:26:21.741Z,3.00
2018-12-22T21:28:51.037Z,2.90
2018-12-22T21:31:20.455Z,2.87
2018-12-22T21:33:49.798Z,4.50
2018-12-22T21:36:19.174Z,3.90
2018-12-22T21:38:48.535Z,4.60
2018-12-22T21:41:17.965Z,2.80
2018-12-22T21:43:47.301Z,3.50
2018-12-22T21:46:16.656Z,3.63
2018-12-22T21:48:46.021Z,3.40
2018-12-22T21:51:15.355Z,3.87
2018-12-22T21:53:44.661Z,4.50
2018-12-22T21:56:13.984Z,3.90
2018-12-22T21:58:43.404Z,3.67
2018-12-22T22:01:12.737Z,2.70
2018-12-22T22:03:42.057Z,3.47
2018-12-22T22:06:11.350Z,3.10
2018-12-22T22:08:40.643Z,2.80
2018-12-22T22:11:09.946Z,3.13
2018-12-22T22:13:39.250Z,3.53
2018-12-22T22:16:08.591Z,4.03
2018-12-22T22:18:37.883Z,5.60
2018-12-22T22:21:07.226Z,6.10
2018-12-22T22:23:36.536Z,6.20
2018-12-22T22:26:05.924Z,6.27
2018-12-22T22:28:35.199Z,6.97
2018-12-22T22:31:04.483Z,6.10
2018-12-22T22:33:33.761Z,6.70
2018-12-22T22:36:03.092Z,5.90
2018-12-22T22:38:33.558Z,5.63
2018-12-22T22:41:02.960Z,5.53
2018-12-22T22:43:32.320Z,5.27
2018-12-22T22:46:01.585Z,5.30
2018-12-22T22:48:30.831Z,4.50
2018-12-22T22:51:00.263Z,4.27
2018-12-22T22:53:29.669Z,3.90
2018-12-22T22:55:59.604Z,3.70
2018-12-22T22:58:28.871Z,3.30
2018-12-22T23:00:58.279Z,4.13
2018-12-22T23:03:27.481Z,4.17
2018-12-22T23:05:57.517Z,4.13
2018-12-22T23:08:26.773Z,4.33
2018-12-22T23:10:56.313Z,4.63
2018-12-22T23:13:25.641Z,4.17
2018-12-22T23:15:54.909Z,3.43
2018-12-22T23:18:24.124Z,3.43
2018-12-22T23:20:53.401Z,3.10
2018-12-22T23:23:22.576Z,3.17
2018-12-22T23:25:51.765Z,2.70
2018-12-22T23:28:20.961Z,2.43
2018-12-22T23:30:50.141Z,3.00
2018-12-22T23:33:19.369Z,2.93
2018-12-22T23:35:48.674Z,2.70
2018-12-22T23:38:17.972Z,2.70
2018-12-22T23:40:47.182Z,2.80
2018-12-22T23:43:16.395Z,3.10
2018-12-22T23:45:45.639Z,2.87
2018-12-22T23:48:14.864Z,2.57
2018-12-22T23:50:44.044Z,3.20
2018-12-22T23:53:13.255Z,3.00
2018-12-22T23:55:42.446Z,4.03
2018-12-22T23:58:11.656Z,4.13
